Terminal Aerodrome Forecast
Issued by NWS

Home | Current Version | Previous Version | Text Only | Print | Product List | Glossary On
Versions: 1 2 3 4 5 6 7 8 9 10 11 12 13 14 15 16
000
FTUS43 KILX 010900 AAA
TAFDEC
TAF AMD
KDEC 010927Z 0109/0206 19011KT P6SM SCT010
      TEMPO 0109/0113 4SM BR BKN008
     FM011500 20013G21KT P6SM SCT035 BKN250
     FM012100 22014G22KT P6SM -SHRA VCTS BKN035CB
     FM020000 23007KT 5SM -SHRA BR VCTS BKN035CB=

USA.gov is the U.S. government's official web portal to all federal, state and local government web resources and services.